Time;durP1;ratioP1;P1;durP2;ratioP2;P2;SDS_P1;SDS_P2;PMS_P1;PMS_P2;Temp;Humidity;BMP_temperature;BMP_pressure;BME280_temperature;BME280_humidity;BME280_pressure;Samples;Min_cycle;Max_cycle;Signal;HPM_P1;HPM_P2
2022/12/06 00:01:39;;;;;;;64.97;34.43;;;4.00;99.90;;;;;;5031956;28;20218;-65
2022/12/06 00:04:11;;;;;;;69.63;34.20;;;4.00;99.90;;;;;;5043332;28;20636;-83
2022/12/06 00:06:41;;;;;;;65.20;34.40;;;4.00;99.90;;;;;;5052304;28;20294;-80
2022/12/06 00:09:17;;;;;;;72.50;34.93;;;4.10;99.90;;;;;;5051633;28;20221;-70
2022/12/06 00:11:45;;;;;;;65.13;34.97;;;4.10;99.90;;;;;;5052135;28;20212;-82
2022/12/06 00:14:14;;;;;;;75.00;36.30;;;4.10;99.90;;;;;;5052933;28;20727;-74
2022/12/06 00:16:44;;;;;;;69.40;34.87;;;4.00;99.90;;;;;;5051960;28;20684;-70
2022/12/06 00:19:14;;;;;;;64.67;34.67;;;4.00;99.90;;;;;;5071859;27;20206;-66
2022/12/06 00:21:43;;;;;;;70.87;35.80;;;4.00;99.90;;;;;;5136314;27;20201;-66
2022/12/06 00:24:14;;;;;;;75.50;36.30;;;4.00;99.90;;;;;;5135307;27;20200;-66
2022/12/06 00:26:45;;;;;;;76.73;36.77;;;4.00;99.90;;;;;;5135483;27;20199;-67
2022/12/06 00:29:15;;;;;;;75.77;35.47;;;4.00;99.90;;;;;;5134915;27;20276;-66
2022/12/06 00:31:45;;;;;;;70.87;34.73;;;4.10;99.90;;;;;;5135294;27;20311;-70
2022/12/06 00:34:13;;;;;;;64.10;33.37;;;4.10;99.90;;;;;;5135000;27;20286;-66
2022/12/06 00:36:42;;;;;;;73.93;34.83;;;4.10;99.90;;;;;;5135364;27;20190;-65
2022/12/06 00:39:13;;;;;;;65.70;33.93;;;4.10;99.90;;;;;;5134755;27;20592;-67
2022/12/06 00:41:43;;;;;;;67.50;31.80;;;4.10;99.90;;;;;;5135192;27;20721;-70
2022/12/06 00:44:11;;;;;;;71.43;34.17;;;4.10;99.90;;;;;;5134941;27;20198;-71
2022/12/06 00:46:40;;;;;;;67.50;33.00;;;4.10;99.90;;;;;;5134992;27;20659;-66
2022/12/06 00:49:10;;;;;;;67.50;33.83;;;4.10;99.90;;;;;;5134503;27;20272;-66
2022/12/06 00:51:39;;;;;;;68.03;33.13;;;4.10;99.90;;;;;;5134698;27;20205;-66
2022/12/06 00:54:08;;;;;;;62.93;32.67;;;4.10;99.90;;;;;;5134835;27;20198;-67
2022/12/06 00:56:37;;;;;;;68.67;33.53;;;4.10;99.90;;;;;;5133221;27;20193;-67
2022/12/06 00:59:06;;;;;;;67.60;33.93;;;4.10;99.90;;;;;;5113824;28;20240;-66
2022/12/06 01:01:35;;;;;;;66.00;33.87;;;4.10;99.90;;;;;;5114060;28;20209;-67
2022/12/06 01:04:06;;;;;;;75.30;34.60;;;4.10;99.90;;;;;;5113747;28;20323;-66
2022/12/06 01:06:37;;;;;;;65.50;34.03;;;4.00;99.90;;;;;;5114107;28;20232;-66
2022/12/06 01:09:08;;;;;;;74.20;35.93;;;4.00;99.90;;;;;;5113925;28;20566;-65
2022/12/06 01:11:37;;;;;;;79.97;36.10;;;3.90;99.90;;;;;;5113550;28;20208;-66
2022/12/06 01:14:05;;;;;;;75.87;37.50;;;3.90;99.90;;;;;;5113820;28;20232;-65
2022/12/06 01:16:34;;;;;;;77.43;37.57;;;3.80;99.90;;;;;;5113873;28;20226;-66
2022/12/06 01:19:04;;;;;;;71.53;35.43;;;3.80;99.90;;;;;;5126294;27;20204;-70
2022/12/06 01:21:33;;;;;;;79.40;35.00;;;3.90;99.90;;;;;;5129692;27;20195;-69
2022/12/06 01:24:02;;;;;;;68.97;34.60;;;4.00;99.90;;;;;;5133672;27;20196;-81
2022/12/06 01:26:33;;;;;;;69.43;31.73;;;4.00;99.90;;;;;;5134097;27;20288;-80
2022/12/06 01:29:02;;;;;;;61.77;35.50;;;4.00;99.90;;;;;;5134458;27;20194;-66
2022/12/06 01:31:33;;;;;;;70.07;33.60;;;4.10;99.90;;;;;;5134385;27;20232;-70
2022/12/06 01:34:06;;;;;;;64.73;33.07;;;4.10;99.90;;;;;;5134587;27;20231;-65
2022/12/06 01:36:34;;;;;;;60.47;31.73;;;4.10;99.90;;;;;;5134557;27;20556;-73
2022/12/06 01:39:09;;;;;;;61.93;32.20;;;4.10;99.90;;;;;;5133804;27;20212;-67
2022/12/06 01:41:38;;;;;;;56.70;30.57;;;4.10;99.90;;;;;;5133804;27;20193;-68
2022/12/06 01:44:07;;;;;;;62.80;31.73;;;4.10;99.90;;;;;;5134171;27;20281;-78
2022/12/06 01:46:39;;;;;;;54.10;29.43;;;4.20;99.90;;;;;;5133948;27;20200;-67
2022/12/06 01:49:18;;;;;;;49.43;27.60;;;4.20;99.90;;;;;;5133544;27;20194;-69
2022/12/06 01:51:51;;;;;;;59.13;28.47;;;4.10;99.90;;;;;;5133483;27;20217;-67
2022/12/06 01:54:27;;;;;;;50.47;28.80;;;4.10;99.90;;;;;;5133844;27;20209;-69
2022/12/06 01:56:57;;;;;;;51.60;28.33;;;4.20;99.90;;;;;;5133888;27;20255;-80
2022/12/06 01:59:27;;;;;;;58.60;29.53;;;4.20;99.90;;;;;;5133412;27;20194;-73
2022/12/06 02:01:56;;;;;;;55.73;30.27;;;4.20;99.90;;;;;;5133326;27;20198;-69
2022/12/06 02:04:26;;;;;;;59.40;28.30;;;4.20;99.90;;;;;;5133213;27;20231;-67
2022/12/06 02:06:55;;;;;;;54.37;30.03;;;4.20;99.90;;;;;;5133912;27;20200;-73
2022/12/06 02:09:27;;;;;;;51.97;27.70;;;4.30;99.90;;;;;;5132578;27;20552;-72
2022/12/06 02:11:55;;;;;;;50.73;27.93;;;4.20;99.90;;;;;;5133293;27;20194;-80
2022/12/06 02:14:28;;;;;;;67.40;31.50;;;4.20;99.90;;;;;;5114902;27;20230;-74
2022/12/06 02:17:14;;;;;;;48.40;26.93;;;4.30;99.90;;;;;;5133137;27;20299;-70
2022/12/06 02:20:11;;;;;;;46.10;26.53;;;4.30;99.90;;;;;;5133018;27;20183;-75
2022/12/06 02:23:12;;;;;;;48.17;26.17;;;4.20;99.90;;;;;;5133122;27;20200;-78
2022/12/06 02:26:23;;;;;;;45.20;25.03;;;4.30;99.90;;;;;;5133474;27;20196;-66
2022/12/06 02:29:33;;;;;;;49.73;24.90;;;4.20;99.90;;;;;;5132992;27;20193;-76
2022/12/06 02:32:09;;;;;;;47.50;24.13;;;4.10;99.90;;;;;;5130354;27;20215;-77
2022/12/06 02:34:44;;;;;;;46.07;25.20;;;4.10;99.90;;;;;;5132726;27;20254;-70
2022/12/06 02:37:15;;;;;;;51.03;25.63;;;4.10;99.90;;;;;;5132975;27;20211;-67
2022/12/06 02:39:49;;;;;;;42.80;23.73;;;4.10;99.90;;;;;;5132929;27;20375;-67
2022/12/06 02:42:22;;;;;;;42.67;23.43;;;4.10;99.90;;;;;;5133006;27;20308;-65
2022/12/06 02:44:53;;;;;;;41.00;22.67;;;4.00;99.90;;;;;;5132868;27;20191;-80
2022/12/06 02:47:27;;;;;;;48.13;24.60;;;4.00;99.90;;;;;;5132875;27;20293;-72
2022/12/06 02:49:57;;;;;;;48.00;24.77;;;4.00;99.90;;;;;;5132651;27;20208;-66
2022/12/06 02:52:28;;;;;;;41.90;23.23;;;4.00;99.90;;;;;;5132546;27;20203;-77
2022/12/06 02:55:00;;;;;;;47.83;23.67;;;4.00;99.90;;;;;;5133005;27;20207;-78
2022/12/06 02:57:39;;;;;;;44.70;22.60;;;4.00;99.90;;;;;;5132640;27;20202;-69
2022/12/06 03:00:37;;;;;;;39.20;22.00;;;4.10;99.90;;;;;;5132758;27;20683;-67
2022/12/06 03:03:23;;;;;;;41.37;22.07;;;4.20;99.90;;;;;;5132068;27;20574;-71
2022/12/06 03:06:15;;;;;;;38.43;21.73;;;4.20;99.90;;;;;;5132499;27;20671;-76
2022/12/06 03:08:53;;;;;;;46.63;23.47;;;4.10;99.90;;;;;;5132328;28;20234;-82
2022/12/06 03:11:21;;;;;;;41.00;22.53;;;4.10;99.90;;;;;;5132704;28;20201;-67
2022/12/06 03:13:59;;;;;;;45.77;22.87;;;4.10;99.90;;;;;;5132343;28;20213;-68
2022/12/06 03:16:32;;;;;;;37.97;22.30;;;4.20;99.90;;;;;;5132822;28;20204;-84
2022/12/06 03:19:06;;;;;;;45.43;23.97;;;4.20;99.90;;;;;;5132416;28;20206;-85
2022/12/06 03:21:39;;;;;;;46.30;24.70;;;4.10;99.90;;;;;;5136331;27;20197;-70
2022/12/06 03:24:13;;;;;;;50.23;23.57;;;4.20;99.90;;;;;;5136512;27;20603;-66
2022/12/06 03:26:45;;;;;;;41.40;22.57;;;4.10;99.90;;;;;;5136757;27;20234;-73
2022/12/06 03:29:17;;;;;;;43.40;22.57;;;4.20;99.90;;;;;;5118082;27;20636;-70
2022/12/06 03:31:47;;;;;;;43.07;23.37;;;4.30;99.90;;;;;;5136464;27;20192;-70
2022/12/06 03:34:21;;;;;;;43.20;22.47;;;4.30;99.90;;;;;;5136199;27;20215;-80
2022/12/06 03:36:52;;;;;;;41.53;22.53;;;4.30;99.90;;;;;;5136445;27;20203;-77
2022/12/06 03:39:28;;;;;;;42.03;21.70;;;4.30;99.90;;;;;;5136444;27;20195;-82
2022/12/06 03:41:59;;;;;;;39.47;21.43;;;4.40;99.90;;;;;;5136444;27;20228;-82
2022/12/06 03:44:27;;;;;;;47.30;24.47;;;4.40;99.90;;;;;;5136228;27;20837;-82
2022/12/06 03:47:02;;;;;;;44.10;22.60;;;4.40;99.90;;;;;;5136211;27;20197;-78
2022/12/06 03:49:37;;;;;;;49.10;24.07;;;4.40;99.90;;;;;;5136150;27;20915;-77
2022/12/06 03:52:06;;;;;;;56.87;25.20;;;4.40;99.90;;;;;;5136481;27;20262;-83
2022/12/06 03:54:34;;;;;;;50.63;24.47;;;4.30;99.90;;;;;;5136052;27;20221;-67
2022/12/06 03:57:03;;;;;;;48.27;23.20;;;4.20;99.90;;;;;;5136418;27;20204;-78
2022/12/06 03:59:31;;;;;;;45.73;22.73;;;4.20;99.90;;;;;;5136042;27;20196;-75
2022/12/06 04:01:59;;;;;;;54.23;23.77;;;4.20;99.90;;;;;;5139248;27;20197;-69
2022/12/06 04:04:28;;;;;;;48.03;25.07;;;4.20;99.90;;;;;;5156325;27;20232;-74
2022/12/06 04:06:57;;;;;;;45.13;22.87;;;4.20;99.90;;;;;;5156742;27;20678;-75
2022/12/06 04:14:53;;;;;;;46.87;22.93;;;4.20;99.90;;;;;;5155838;27;20222;-88
2022/12/06 04:20:08;;;;;;;47.97;23.07;;;4.20;99.90;;;;;;5156819;27;20206;-67
2022/12/06 04:25:29;;;;;;;50.40;23.40;;;4.20;99.90;;;;;;5072117;28;20217;-66
2022/12/06 04:39:03;;;;;;;56.90;22.93;;;4.30;99.90;;;;;;5069136;28;20230;-66
2022/12/06 04:44:17;;;;;;;51.80;24.47;;;4.20;99.90;;;;;;5072065;28;20289;-76
2022/12/06 04:46:45;;;;;;;58.07;24.00;;;4.20;99.90;;;;;;5071985;28;20195;-70
2022/12/06 04:49:14;;;;;;;62.53;25.03;;;4.10;99.90;;;;;;5071615;28;20202;-71
2022/12/06 04:51:42;;;;;;;54.40;24.87;;;4.00;99.90;;;;;;5071533;28;20237;-71
2022/12/06 04:54:12;;;;;;;49.63;22.97;;;4.10;99.90;;;;;;5071498;28;20241;-75
2022/12/06 04:56:40;;;;;;;55.53;24.43;;;4.20;99.90;;;;;;5071607;28;20207;-77
2022/12/06 04:59:09;;;;;;;53.63;22.87;;;4.20;99.90;;;;;;5071697;28;20195;-82
2022/12/06 05:01:37;;;;;;;56.20;25.60;;;4.20;99.90;;;;;;5089735;27;20216;-75
2022/12/06 05:04:06;;;;;;;58.80;26.17;;;4.20;99.90;;;;;;5134783;27;20712;-73
2022/12/06 05:06:34;;;;;;;58.57;24.00;;;4.20;99.90;;;;;;5134803;27;20255;-76
2022/12/06 05:09:03;;;;;;;61.13;25.53;;;4.10;99.90;;;;;;5134803;27;20278;-76
2022/12/06 05:11:32;;;;;;;60.63;25.37;;;4.10;99.90;;;;;;5127117;27;20273;-80
2022/12/06 05:14:01;;;;;;;52.63;24.73;;;4.10;99.90;;;;;;5129739;27;20226;-80
2022/12/06 05:16:29;;;;;;;58.80;24.20;;;4.10;99.90;;;;;;5132655;27;20197;-82
2022/12/06 05:18:57;;;;;;;56.50;25.30;;;4.10;99.90;;;;;;5114103;28;20196;-79
2022/12/06 05:21:26;;;;;;;58.20;25.10;;;4.10;99.90;;;;;;5114113;28;20585;-84
2022/12/06 05:23:55;;;;;;;54.37;25.07;;;4.10;99.90;;;;;;5117960;27;20236;-67
2022/12/06 05:26:26;;;;;;;49.47;24.07;;;4.10;99.90;;;;;;5134829;27;20187;-86
2022/12/06 05:28:56;;;;;;;55.17;24.63;;;4.10;99.90;;;;;;5134511;27;20202;-78
2022/12/06 05:31:25;;;;;;;55.27;25.87;;;4.10;99.90;;;;;;5134287;27;20204;-73
2022/12/06 05:33:54;;;;;;;51.03;23.57;;;4.10;99.90;;;;;;5134155;27;20726;-82
2022/12/06 05:36:25;;;;;;;53.67;25.37;;;4.10;99.90;;;;;;5133877;27;20681;-71
2022/12/06 05:38:54;;;;;;;54.70;23.97;;;4.10;99.90;;;;;;5134464;27;20194;-79
2022/12/06 05:41:23;;;;;;;56.40;25.13;;;4.00;99.90;;;;;;5134012;27;20199;-69
2022/12/06 05:43:51;;;;;;;52.27;23.40;;;4.00;99.90;;;;;;5133006;27;20255;-70
2022/12/06 05:46:21;;;;;;;53.03;24.13;;;4.10;99.90;;;;;;5129912;27;20654;-69
2022/12/06 05:48:50;;;;;;;54.73;24.47;;;4.00;99.90;;;;;;5134026;27;20196;-69
2022/12/06 05:51:18;;;;;;;50.13;24.10;;;4.10;99.90;;;;;;5133777;27;20203;-68
2022/12/06 05:53:46;;;;;;;51.47;22.77;;;4.00;99.90;;;;;;5133938;27;20690;-68
2022/12/06 05:56:15;;;;;;;52.47;24.83;;;4.00;99.90;;;;;;5110989;27;20666;-69
2022/12/06 05:58:43;;;;;;;53.30;24.50;;;4.00;99.90;;;;;;5119541;27;20201;-72
2022/12/06 06:01:11;;;;;;;52.53;22.27;;;4.10;99.90;;;;;;5131829;27;20187;-74
2022/12/06 06:03:41;;;;;;;51.07;23.37;;;4.20;99.90;;;;;;5112916;28;20225;-81
2022/12/06 06:06:14;;;;;;;57.40;24.17;;;4.20;99.90;;;;;;5117175;27;20197;-74
2022/12/06 06:08:43;;;;;;;53.13;24.33;;;4.20;99.90;;;;;;5140889;27;20200;-76
2022/12/06 06:11:11;;;;;;;51.43;24.30;;;4.20;99.90;;;;;;5124015;27;20309;-76
2022/12/06 06:13:39;;;;;;;48.20;22.87;;;4.30;99.90;;;;;;5112934;28;20246;-70
2022/12/06 06:16:08;;;;;;;52.03;24.70;;;4.30;99.90;;;;;;5128977;27;20566;-66
2022/12/06 06:18:36;;;;;;;50.43;23.13;;;4.30;99.90;;;;;;5133359;27;20199;-66
2022/12/06 06:21:06;;;;;;;54.10;25.07;;;4.30;99.90;;;;;;5114672;27;20194;-73
2022/12/06 06:23:34;;;;;;;46.00;23.60;;;4.20;99.90;;;;;;5131361;27;20203;-68
2022/12/06 06:26:07;;;;;;;47.67;23.63;;;4.20;99.90;;;;;;5128102;27;20197;-66
2022/12/06 06:28:36;;;;;;;45.27;23.93;;;4.20;99.90;;;;;;5121456;27;20228;-73
2022/12/06 06:31:05;;;;;;;49.70;25.57;;;4.20;99.90;;;;;;5130925;27;20274;-65
2022/12/06 06:33:35;;;;;;;56.70;24.23;;;4.30;99.90;;;;;;5129510;27;20208;-67
2022/12/06 06:36:03;;;;;;;53.80;24.70;;;4.20;99.90;;;;;;5129393;27;20317;-71
2022/12/06 06:38:35;;;;;;;56.53;24.07;;;4.00;99.90;;;;;;5049552;28;20696;-73
2022/12/06 06:41:04;;;;;;;53.73;24.60;;;4.00;99.90;;;;;;5049739;28;20204;-66
2022/12/06 06:43:33;;;;;;;52.43;24.33;;;3.90;99.90;;;;;;5064548;28;20231;-74
2022/12/06 06:46:05;;;;;;;55.13;24.23;;;3.90;99.90;;;;;;5069947;28;20197;-73
2022/12/06 06:48:37;;;;;;;55.53;26.00;;;3.90;99.90;;;;;;5090146;28;20216;-72
2022/12/06 06:51:08;;;;;;;50.30;24.73;;;3.90;99.90;;;;;;5090330;28;20220;-69
2022/12/06 06:53:39;;;;;;;59.63;26.33;;;3.90;99.90;;;;;;5089884;28;20662;-84
2022/12/06 06:56:08;;;;;;;57.53;27.97;;;3.90;99.90;;;;;;5100334;27;20314;-70
2022/12/06 06:58:36;;;;;;;63.13;27.23;;;3.90;99.90;;;;;;5133249;27;20191;-72
2022/12/06 07:01:07;;;;;;;57.87;27.90;;;4.00;99.90;;;;;;5131434;27;20594;-79
2022/12/06 07:03:36;;;;;;;52.83;28.23;;;4.00;99.90;;;;;;5119293;27;20229;-78
2022/12/06 07:06:08;;;;;;;60.40;28.13;;;4.00;99.90;;;;;;5130814;27;20620;-74
2022/12/06 07:08:40;;;;;;;63.43;29.47;;;3.90;99.90;;;;;;5148641;27;20206;-71
2022/12/06 07:11:09;;;;;;;61.97;28.90;;;4.00;99.90;;;;;;5153396;27;20210;-66
2022/12/06 07:13:39;;;;;;;64.13;28.20;;;4.00;99.90;;;;;;5153535;27;20229;-66
2022/12/06 07:16:12;;;;;;;58.63;26.77;;;4.10;99.90;;;;;;5125191;27;20219;-66
2022/12/06 07:18:41;;;;;;;58.23;25.67;;;4.10;99.90;;;;;;5121585;28;20600;-66
2022/12/06 07:21:12;;;;;;;54.87;25.90;;;4.20;99.90;;;;;;5121676;28;20223;-77
2022/12/06 07:23:43;;;;;;;71.47;31.83;;;4.10;99.90;;;;;;5113189;28;20201;-86
2022/12/06 07:26:12;;;;;;;61.90;26.13;;;4.10;99.90;;;;;;5112681;28;20201;-67
2022/12/06 07:28:42;;;;;;;57.80;26.57;;;4.10;99.90;;;;;;5093804;28;20559;-81
2022/12/06 07:31:12;;;;;;;54.90;26.43;;;4.10;99.90;;;;;;5116890;28;20198;-77
2022/12/06 07:33:41;;;;;;;54.93;27.17;;;4.10;99.90;;;;;;5130606;28;20205;-82
2022/12/06 07:36:11;;;;;;;54.93;25.53;;;4.10;99.90;;;;;;5132843;28;20215;-80
2022/12/06 07:38:43;;;;;;;61.87;26.93;;;4.10;99.90;;;;;;5132786;28;20201;-75
2022/12/06 07:46:46;;;;;;;56.40;25.63;;;4.10;99.90;;;;;;5128136;28;20195;-78
2022/12/06 07:49:15;;;;;;;55.47;26.80;;;4.10;99.90;;;;;;5122998;28;20287;-74
2022/12/06 07:51:44;;;;;;;56.57;25.57;;;4.20;99.90;;;;;;5132709;28;20661;-71
2022/12/06 07:54:15;;;;;;;60.10;26.50;;;4.20;99.90;;;;;;5132643;28;20300;-79
2022/12/06 07:56:44;;;;;;;55.77;25.73;;;4.20;99.90;;;;;;5132651;28;20220;-66
2022/12/06 07:59:12;;;;;;;56.73;26.40;;;4.20;99.90;;;;;;5132620;28;20194;-75
2022/12/06 08:01:41;;;;;;;55.00;26.63;;;4.20;99.90;;;;;;5132696;28;20571;-74
2022/12/06 08:04:09;;;;;;;56.23;27.17;;;4.20;99.90;;;;;;5131924;28;20229;-70
2022/12/06 08:06:38;;;;;;;59.23;31.23;;;4.30;99.90;;;;;;5114684;27;20571;-78
2022/12/06 08:09:08;;;;;;;59.07;29.23;;;4.40;99.90;;;;;;5132022;27;20652;-80
2022/12/06 08:11:38;;;;;;;60.73;29.97;;;4.40;99.90;;;;;;5134334;27;20735;-66
2022/12/06 08:14:06;;;;;;;59.37;28.27;;;4.50;99.90;;;;;;5157065;27;20300;-80
2022/12/06 08:16:34;;;;;;;48.43;26.23;;;4.40;99.90;;;;;;5148716;27;20217;-68
2022/12/06 08:19:03;;;;;;;69.57;35.60;;;4.40;99.90;;;;;;5135815;27;20212;-76
2022/12/06 08:21:31;;;;;;;141.23;70.83;;;4.50;99.90;;;;;;5136166;27;20195;-81
2022/12/06 08:23:59;;;;;;;66.17;35.87;;;4.50;99.90;;;;;;5136031;27;20207;-78
2022/12/06 08:26:28;;;;;;;48.57;26.40;;;4.60;99.90;;;;;;5136037;27;20208;-74
2022/12/06 08:29:00;;;;;;;53.63;30.23;;;4.50;99.90;;;;;;5146217;27;20235;-79
2022/12/06 08:31:30;;;;;;;56.93;29.07;;;4.50;99.90;;;;;;5132161;27;20196;-79
2022/12/06 08:33:58;;;;;;;53.00;26.17;;;4.50;99.90;;;;;;5125925;27;20281;-75
2022/12/06 08:36:27;;;;;;;50.83;27.80;;;4.50;99.90;;;;;;5136900;27;20217;-71
2022/12/06 08:38:58;;;;;;;52.20;26.93;;;4.50;99.90;;;;;;5135744;27;20305;-76
2022/12/06 08:44:15;;;;;;;41.87;24.53;;;4.70;99.90;;;;;;5135740;27;20219;-76
2022/12/06 08:46:44;;;;;;;44.77;25.60;;;4.60;99.90;;;;;;5131071;27;20291;-68
2022/12/06 08:49:15;;;;;;;48.80;27.27;;;4.50;99.90;;;;;;5134532;27;20199;-78
2022/12/06 08:51:43;;;;;;;47.13;24.03;;;4.40;99.90;;;;;;5135544;27;20199;-67
2022/12/06 08:54:13;;;;;;;40.13;24.23;;;4.50;99.90;;;;;;5135429;27;20199;-70
2022/12/06 08:56:42;;;;;;;41.90;23.63;;;4.50;99.90;;;;;;5135703;27;20315;-76
2022/12/06 08:59:10;;;;;;;44.30;26.13;;;4.50;99.90;;;;;;5135569;27;20664;-81
2022/12/06 09:01:41;;;;;;;49.40;26.03;;;4.60;99.90;;;;;;5124104;27;20240;-76
2022/12/06 09:04:11;;;;;;;44.30;23.77;;;4.60;99.90;;;;;;5114667;28;20225;-73
2022/12/06 09:06:41;;;;;;;42.20;24.17;;;4.60;99.90;;;;;;5114885;28;20343;-81
2022/12/06 09:09:11;;;;;;;46.00;25.93;;;4.60;99.90;;;;;;5114587;28;20667;-82
2022/12/06 09:11:40;;;;;;;43.60;25.33;;;4.50;99.90;;;;;;5114704;28;20204;-77
2022/12/06 09:14:09;;;;;;;49.87;24.93;;;4.50;99.90;;;;;;5096368;28;20196;-82
2022/12/06 09:16:37;;;;;;;42.90;25.23;;;4.40;99.90;;;;;;5123119;27;20579;-71
2022/12/06 09:19:07;;;;;;;46.03;24.97;;;4.40;99.90;;;;;;5113838;28;20210;-74
2022/12/06 09:21:38;;;;;;;48.50;26.37;;;4.40;99.90;;;;;;5114238;28;20581;-75
2022/12/06 09:24:07;;;;;;;43.57;25.17;;;4.50;99.90;;;;;;5113854;28;20617;-76
2022/12/06 09:26:36;;;;;;;46.00;27.30;;;4.50;99.90;;;;;;5114048;28;20192;-69
2022/12/06 09:29:05;;;;;;;47.77;26.00;;;4.50;99.90;;;;;;5113781;28;20677;-79
2022/12/06 09:31:34;;;;;;;43.67;24.37;;;4.50;99.90;;;;;;5113738;28;20202;-85
2022/12/06 09:34:02;;;;;;;45.67;27.07;;;4.50;99.90;;;;;;5113697;28;20192;-73
2022/12/06 09:36:32;;;;;;;61.27;33.77;;;4.50;99.90;;;;;;5113682;28;20444;-83
2022/12/06 09:39:05;;;;;;;48.87;26.63;;;4.50;99.90;;;;;;5113739;28;20573;-76
2022/12/06 09:41:57;;;;;;;48.20;26.87;;;4.50;99.90;;;;;;5113657;28;20212;-78
2022/12/06 09:44:47;;;;;;;46.50;26.83;;;4.50;99.90;;;;;;5113714;28;20198;-67
2022/12/06 09:47:25;;;;;;;44.80;25.43;;;4.60;99.90;;;;;;5113706;28;20223;-77
2022/12/06 09:50:07;;;;;;;47.80;25.87;;;4.60;99.90;;;;;;5113604;28;20222;-83
2022/12/06 09:52:52;;;;;;;47.00;25.40;;;4.60;99.90;;;;;;5113316;28;20195;-81
2022/12/06 09:55:33;;;;;;;45.17;25.47;;;4.60;99.90;;;;;;5113454;28;20563;-74
2022/12/06 09:58:09;;;;;;;44.03;24.70;;;4.70;99.90;;;;;;5113053;28;20261;-67
2022/12/06 10:00:45;;;;;;;45.90;25.60;;;4.70;99.90;;;;;;5113277;28;20659;-67
2022/12/06 10:03:52;;;;;;;48.20;25.93;;;4.70;99.90;;;;;;5112939;28;20236;-67
2022/12/06 10:06:23;;;;;;;42.67;24.83;;;4.80;99.90;;;;;;5050431;28;20268;-67
2022/12/06 10:09:18;;;;;;;46.23;26.50;;;4.90;99.90;;;;;;5050112;28;20248;-75
2022/12/06 10:12:03;;;;;;;41.70;24.67;;;4.80;99.90;;;;;;5050132;28;20204;-79
2022/12/06 10:14:46;;;;;;;43.27;24.37;;;4.70;99.90;;;;;;5050059;28;20207;-71
2022/12/06 10:17:24;;;;;;;43.97;24.57;;;4.70;99.90;;;;;;5049965;28;20231;-82
2022/12/06 10:20:03;;;;;;;50.47;26.10;;;4.70;99.90;;;;;;5050014;28;20206;-80
2022/12/06 10:22:44;;;;;;;41.10;23.40;;;4.80;99.90;;;;;;5049714;28;20240;-75
2022/12/06 10:25:21;;;;;;;44.53;23.17;;;4.80;99.90;;;;;;5049799;28;20251;-71
2022/12/06 10:27:59;;;;;;;39.80;24.10;;;4.70;99.90;;;;;;5049614;28;20214;-83
2022/12/06 10:30:27;;;;;;;44.93;25.43;;;4.70;99.90;;;;;;5048999;28;20745;-82
2022/12/06 10:33:04;;;;;;;47.20;25.93;;;4.70;99.90;;;;;;5032663;28;20212;-70
2022/12/06 10:35:42;;;;;;;44.23;25.97;;;4.70;99.90;;;;;;5049626;28;20293;-67
2022/12/06 10:38:22;;;;;;;45.67;25.57;;;4.70;99.90;;;;;;5049245;28;20240;-69
2022/12/06 10:41:02;;;;;;;50.50;26.47;;;4.60;99.90;;;;;;5049583;28;20330;-66
2022/12/06 10:43:38;;;;;;;55.07;28.20;;;4.70;99.90;;;;;;5112357;28;20194;-78
2022/12/06 10:49:03;;;;;;;43.37;24.47;;;4.80;99.90;;;;;;5112316;28;20203;-69
2022/12/06 10:51:39;;;;;;;38.23;23.03;;;4.80;99.90;;;;;;5112260;28;20196;-72
2022/12/06 10:54:25;;;;;;;44.30;24.83;;;4.80;99.90;;;;;;5112086;28;20211;-67
2022/12/06 10:56:57;;;;;;;43.80;25.10;;;4.80;99.90;;;;;;5111995;28;20549;-76
2022/12/06 10:59:31;;;;;;;43.63;24.37;;;4.80;99.90;;;;;;5112112;28;20224;-68
2022/12/06 11:02:12;;;;;;;53.57;24.83;;;4.80;99.90;;;;;;5111654;28;20719;-74
2022/12/06 11:04:42;;;;;;;48.80;25.33;;;4.80;99.90;;;;;;5111235;28;20325;-68
2022/12/06 11:07:16;;;;;;;51.53;25.93;;;4.90;99.90;;;;;;5111650;28;20257;-79
2022/12/06 11:09:48;;;;;;;47.30;24.93;;;4.90;99.90;;;;;;5111523;28;20203;-65
2022/12/06 11:12:25;;;;;;;41.07;25.13;;;4.80;99.90;;;;;;5112071;28;20256;-82
2022/12/06 11:15:04;;;;;;;40.77;24.50;;;4.80;99.90;;;;;;5111925;28;20626;-77
2022/12/06 11:17:37;;;;;;;43.07;24.50;;;4.80;99.90;;;;;;5111563;28;20282;-67
2022/12/06 11:20:17;;;;;;;44.63;25.90;;;4.80;99.90;;;;;;5112044;28;20198;-66
2022/12/06 11:22:53;;;;;;;41.77;23.43;;;4.80;99.90;;;;;;5111828;28;20192;-66
2022/12/06 11:25:28;;;;;;;42.63;24.00;;;4.80;99.90;;;;;;5112071;28;20661;-69
2022/12/06 11:28:05;;;;;;;55.73;32.33;;;4.80;99.90;;;;;;5111933;28;20240;-67
2022/12/06 11:30:34;;;;;;;39.27;24.13;;;4.90;99.90;;;;;;5111970;28;20195;-73
2022/12/06 11:33:04;;;;;;;40.43;24.80;;;4.90;99.90;;;;;;5111914;28;20705;-68
2022/12/06 11:35:33;;;;;;;41.97;24.73;;;4.90;99.90;;;;;;5111913;28;20631;-80
2022/12/06 11:38:04;;;;;;;38.73;24.57;;;4.90;99.90;;;;;;5111911;28;20221;-70
2022/12/06 11:40:35;;;;;;;42.57;24.87;;;4.90;99.90;;;;;;5111975;28;20233;-68
2022/12/06 11:43:08;;;;;;;44.33;25.23;;;4.90;99.90;;;;;;5115817;28;20200;-76
2022/12/06 11:45:41;;;;;;;42.00;24.90;;;4.90;99.90;;;;;;5115994;28;20188;-81
2022/12/06 11:48:15;;;;;;;41.80;25.73;;;4.90;99.90;;;;;;5115830;28;20202;-66
2022/12/06 11:50:45;;;;;;;41.77;23.80;;;4.90;99.90;;;;;;5115691;28;20202;-76
2022/12/06 11:53:21;;;;;;;39.40;23.90;;;4.90;99.90;;;;;;5115695;28;20224;-73
2022/12/06 11:55:53;;;;;;;44.97;24.83;;;4.90;99.90;;;;;;5115682;28;20671;-66
2022/12/06 11:58:29;;;;;;;39.83;25.03;;;5.00;99.90;;;;;;5115564;28;20301;-67
2022/12/06 12:01:01;;;;;;;39.83;24.70;;;5.00;99.90;;;;;;5115704;28;20185;-80
2022/12/06 12:03:32;;;;;;;42.47;24.33;;;5.10;99.90;;;;;;5115216;28;20234;-76
2022/12/06 12:06:19;;;;;;;42.00;23.93;;;5.10;99.90;;;;;;5115522;28;20719;-71
2022/12/06 12:08:55;;;;;;;38.23;24.93;;;5.10;99.90;;;;;;5115329;28;20288;-70
2022/12/06 12:11:26;;;;;;;38.17;23.77;;;5.00;99.90;;;;;;5115352;28;20668;-66
2022/12/06 12:14:00;;;;;;;40.10;23.57;;;5.00;99.90;;;;;;5115541;28;20195;-66
2022/12/06 12:16:35;;;;;;;39.27;23.30;;;5.00;99.90;;;;;;5115300;28;20212;-68
2022/12/06 12:19:21;;;;;;;39.20;24.27;;;5.00;99.90;;;;;;5115188;28;20232;-65
2022/12/06 12:21:50;;;;;;;36.40;23.83;;;5.00;99.90;;;;;;5115035;28;20658;-67
2022/12/06 12:24:45;;;;;;;41.93;24.40;;;5.00;99.90;;;;;;5114928;28;20214;-66
2022/12/06 12:27:44;;;;;;;37.50;23.87;;;4.90;99.90;;;;;;5115073;28;20208;-73
2022/12/06 12:30:24;;;;;;;40.60;24.73;;;4.90;99.90;;;;;;5123566;27;20292;-66
2022/12/06 12:33:19;;;;;;;40.07;23.70;;;4.90;99.90;;;;;;5135650;27;20235;-66
2022/12/06 12:35:50;;;;;;;41.97;23.93;;;4.90;99.90;;;;;;5135612;27;20619;-67
2022/12/06 12:38:35;;;;;;;40.23;24.30;;;5.00;99.90;;;;;;5135235;27;20254;-66
2022/12/06 12:41:22;;;;;;;44.87;25.17;;;5.00;99.90;;;;;;5140423;27;20194;-69
2022/12/06 12:44:00;;;;;;;42.33;24.43;;;5.00;99.90;;;;;;5156175;27;20218;-65
2022/12/06 12:46:54;;;;;;;53.03;31.70;;;5.00;99.90;;;;;;5137508;27;20254;-68
2022/12/06 12:49:26;;;;;;;41.47;24.43;;;4.90;99.90;;;;;;5152784;27;20194;-66
2022/12/06 12:51:55;;;;;;;44.67;24.60;;;4.90;99.90;;;;;;5114699;28;20198;-67
2022/12/06 12:54:30;;;;;;;38.77;23.67;;;4.90;99.90;;;;;;5120629;27;20197;-83
2022/12/06 12:57:00;;;;;;;36.53;22.77;;;4.90;99.90;;;;;;5128249;27;20216;-86
2022/12/06 12:59:35;;;;;;;41.80;25.27;;;4.90;99.90;;;;;;5117911;27;20699;-65
2022/12/06 13:02:18;;;;;;;41.83;24.83;;;5.00;99.90;;;;;;5117255;27;20204;-66
2022/12/06 13:04:49;;;;;;;42.23;24.20;;;5.00;99.90;;;;;;5114088;28;20287;-67
2022/12/06 13:07:35;;;;;;;42.30;24.80;;;5.00;99.90;;;;;;5113911;27;20270;-65
2022/12/06 13:10:08;;;;;;;43.43;24.57;;;5.00;99.90;;;;;;5124401;27;20221;-66
2022/12/06 13:12:40;;;;;;;40.03;23.90;;;4.90;99.90;;;;;;5145155;27;20228;-68
2022/12/06 13:15:15;;;;;;;39.03;24.07;;;4.90;99.90;;;;;;5134622;27;20212;-65
2022/12/06 13:17:50;;;;;;;102.50;52.53;;;4.90;99.90;;;;;;5139242;27;20184;-76
2022/12/06 13:20:28;;;;;;;47.73;27.10;;;4.90;99.90;;;;;;5155125;27;20205;-66
2022/12/06 13:23:01;;;;;;;37.83;22.87;;;4.80;99.90;;;;;;5155347;27;20203;-68
2022/12/06 13:25:30;;;;;;;42.77;24.83;;;4.80;99.90;;;;;;5148648;27;20201;-68
2022/12/06 13:28:02;;;;;;;42.67;24.63;;;4.80;99.90;;;;;;5151821;27;20207;-72
2022/12/06 13:30:36;;;;;;;45.57;26.10;;;4.80;99.90;;;;;;5155121;27;20553;-69
2022/12/06 13:33:14;;;;;;;50.13;29.90;;;4.80;99.90;;;;;;5154693;27;20204;-66
2022/12/06 13:35:54;;;;;;;42.13;24.90;;;4.80;99.90;;;;;;5154977;27;20673;-73
2022/12/06 13:38:28;;;;;;;46.20;25.43;;;4.80;99.90;;;;;;5154760;27;20219;-68
2022/12/06 13:40:58;;;;;;;42.90;26.13;;;4.80;99.90;;;;;;5154750;27;20193;-81